sensor_id;sensor_type;location;lat;lon;timestamp;temperature;humidity
56162;DHT22;42045;52.986;6.014;2023-08-12T00:01:35;18.60;99.90
56162;DHT22;42045;52.986;6.014;2023-08-12T00:04:00;18.50;99.90
56162;DHT22;42045;52.986;6.014;2023-08-12T00:06:26;18.50;99.90
56162;DHT22;42045;52.986;6.014;2023-08-12T00:08:53;18.50;99.90
56162;DHT22;42045;52.986;6.014;2023-08-12T00:11:19;18.50;99.90
56162;DHT22;42045;52.986;6.014;2023-08-12T00:13:44;18.50;99.90
56162;DHT22;42045;52.986;6.014;2023-08-12T00:16:10;18.50;99.90
56162;DHT22;42045;52.986;6.014;2023-08-12T00:18:36;18.50;99.90
56162;DHT22;42045;52.986;6.014;2023-08-12T00:21:09;18.50;99.90
56162;DHT22;42045;52.986;6.014;2023-08-12T00:23:37;18.50;99.90
56162;DHT22;42045;52.986;6.014;2023-08-12T00:26:03;18.40;99.90
56162;DHT22;42045;52.986;6.014;2023-08-12T00:28:28;18.40;99.90
56162;DHT22;42045;52.986;6.014;2023-08-12T00:30:54;18.40;99.90
56162;DHT22;42045;52.986;6.014;2023-08-12T00:33:20;18.40;99.90
56162;DHT22;42045;52.986;6.014;2023-08-12T00:35:45;18.40;99.90
56162;DHT22;42045;52.986;6.014;2023-08-12T00:38:11;18.40;99.90
56162;DHT22;42045;52.986;6.014;2023-08-12T00:40:36;18.40;99.90
56162;DHT22;42045;52.986;6.014;2023-08-12T00:43:02;18.40;99.90
56162;DHT22;42045;52.986;6.014;2023-08-12T00:45:29;18.40;99.90
56162;DHT22;42045;52.986;6.014;2023-08-12T00:47:54;18.40;99.90
56162;DHT22;42045;52.986;6.014;2023-08-12T00:50:20;18.40;99.90
56162;DHT22;42045;52.986;6.014;2023-08-12T00:52:47;18.30;99.90
56162;DHT22;42045;52.986;6.014;2023-08-12T00:55:13;18.40;99.90
56162;DHT22;42045;52.986;6.014;2023-08-12T00:57:39;18.30;99.90
56162;DHT22;42045;52.986;6.014;2023-08-12T01:00:05;18.30;99.90
56162;DHT22;42045;52.986;6.014;2023-08-12T01:02:31;18.40;99.90
56162;DHT22;42045;52.986;6.014;2023-08-12T01:04:58;18.30;99.90
56162;DHT22;42045;52.986;6.014;2023-08-12T01:07:23;18.30;99.90
56162;DHT22;42045;52.986;6.014;2023-08-12T01:09:49;18.30;99.90
56162;DHT22;42045;52.986;6.014;2023-08-12T01:12:22;18.30;99.90
56162;DHT22;42045;52.986;6.014;2023-08-12T01:17:20;18.20;99.90
56162;DHT22;42045;52.986;6.014;2023-08-12T01:19:47;18.20;99.90
56162;DHT22;42045;52.986;6.014;2023-08-12T01:22:13;18.20;99.90
56162;DHT22;42045;52.986;6.014;2023-08-12T01:24:41;18.20;99.90
56162;DHT22;42045;52.986;6.014;2023-08-12T01:27:08;18.10;99.90
56162;DHT22;42045;52.986;6.014;2023-08-12T01:29:43;18.10;99.90
56162;DHT22;42045;52.986;6.014;2023-08-12T01:32:30;18.10;99.90
56162;DHT22;42045;52.986;6.014;2023-08-12T01:35:19;18.10;99.90
56162;DHT22;42045;52.986;6.014;2023-08-12T01:37:48;18.00;99.90
56162;DHT22;42045;52.986;6.014;2023-08-12T01:40:15;18.00;99.90
56162;DHT22;42045;52.986;6.014;2023-08-12T01:42:42;17.90;99.90
56162;DHT22;42045;52.986;6.014;2023-08-12T01:45:08;18.00;99.90
56162;DHT22;42045;52.986;6.014;2023-08-12T01:47:34;18.00;99.90
56162;DHT22;42045;52.986;6.014;2023-08-12T01:49:59;17.90;99.90
56162;DHT22;42045;52.986;6.014;2023-08-12T01:52:25;17.90;99.90
56162;DHT22;42045;52.986;6.014;2023-08-12T01:54:51;17.90;99.90
56162;DHT22;42045;52.986;6.014;2023-08-12T01:57:17;18.00;99.90
56162;DHT22;42045;52.986;6.014;2023-08-12T01:59:43;18.00;99.90
56162;DHT22;42045;52.986;6.014;2023-08-12T02:02:12;17.90;99.90
56162;DHT22;42045;52.986;6.014;2023-08-12T02:04:39;18.00;99.90
56162;DHT22;42045;52.986;6.014;2023-08-12T02:07:05;17.90;99.90
56162;DHT22;42045;52.986;6.014;2023-08-12T02:09:31;17.90;99.90
56162;DHT22;42045;52.986;6.014;2023-08-12T02:11:57;17.80;99.90
56162;DHT22;42045;52.986;6.014;2023-08-12T02:14:22;17.80;99.90
56162;DHT22;42045;52.986;6.014;2023-08-12T02:16:48;17.80;99.90
56162;DHT22;42045;52.986;6.014;2023-08-12T02:19:14;17.80;99.90
56162;DHT22;42045;52.986;6.014;2023-08-12T02:21:40;17.80;99.90
56162;DHT22;42045;52.986;6.014;2023-08-12T02:24:06;17.80;99.90
56162;DHT22;42045;52.986;6.014;2023-08-12T02:26:32;17.80;99.90
56162;DHT22;42045;52.986;6.014;2023-08-12T02:28:57;17.80;99.90
56162;DHT22;42045;52.986;6.014;2023-08-12T02:31:23;17.90;99.90
56162;DHT22;42045;52.986;6.014;2023-08-12T02:33:48;17.90;99.90
56162;DHT22;42045;52.986;6.014;2023-08-12T02:36:17;17.90;99.90
56162;DHT22;42045;52.986;6.014;2023-08-12T02:38:43;17.90;99.90
56162;DHT22;42045;52.986;6.014;2023-08-12T02:41:09;18.00;99.90
56162;DHT22;42045;52.986;6.014;2023-08-12T02:43:34;18.00;99.90
56162;DHT22;42045;52.986;6.014;2023-08-12T02:46:00;18.00;99.90
56162;DHT22;42045;52.986;6.014;2023-08-12T02:48:26;18.00;99.90
56162;DHT22;42045;52.986;6.014;2023-08-12T02:50:52;18.10;99.90
56162;DHT22;42045;52.986;6.014;2023-08-12T02:53:17;18.10;99.90
56162;DHT22;42045;52.986;6.014;2023-08-12T02:55:45;18.10;99.90
56162;DHT22;42045;52.986;6.014;2023-08-12T02:58:11;18.20;99.90
56162;DHT22;42045;52.986;6.014;2023-08-12T03:00:36;18.20;99.90
56162;DHT22;42045;52.986;6.014;2023-08-12T03:03:02;18.20;99.90
56162;DHT22;42045;52.986;6.014;2023-08-12T03:05:31;18.30;99.90
56162;DHT22;42045;52.986;6.014;2023-08-12T03:07:57;18.30;99.90
56162;DHT22;42045;52.986;6.014;2023-08-12T03:10:26;18.40;99.90
56162;DHT22;42045;52.986;6.014;2023-08-12T03:12:52;18.30;99.90
56162;DHT22;42045;52.986;6.014;2023-08-12T03:15:19;18.30;99.90
56162;DHT22;42045;52.986;6.014;2023-08-12T03:17:44;18.40;99.90
56162;DHT22;42045;52.986;6.014;2023-08-12T03:20:10;18.40;99.90
56162;DHT22;42045;52.986;6.014;2023-08-12T03:22:36;18.30;99.90
56162;DHT22;42045;52.986;6.014;2023-08-12T03:25:03;18.40;99.90
56162;DHT22;42045;52.986;6.014;2023-08-12T03:27:29;18.40;99.90
56162;DHT22;42045;52.986;6.014;2023-08-12T03:29:55;18.40;99.90
56162;DHT22;42045;52.986;6.014;2023-08-12T03:32:20;18.40;99.90
56162;DHT22;42045;52.986;6.014;2023-08-12T03:34:46;18.50;99.90
56162;DHT22;42045;52.986;6.014;2023-08-12T03:37:12;18.40;99.90
56162;DHT22;42045;52.986;6.014;2023-08-12T03:39:37;18.50;99.90
56162;DHT22;42045;52.986;6.014;2023-08-12T03:42:03;18.50;99.90
56162;DHT22;42045;52.986;6.014;2023-08-12T03:44:29;18.50;99.90
56162;DHT22;42045;52.986;6.014;2023-08-12T03:46:54;18.50;99.90
56162;DHT22;42045;52.986;6.014;2023-08-12T03:49:20;18.50;99.90
56162;DHT22;42045;52.986;6.014;2023-08-12T03:51:45;18.50;99.90
56162;DHT22;42045;52.986;6.014;2023-08-12T03:54:12;18.50;99.90
56162;DHT22;42045;52.986;6.014;2023-08-12T03:56:37;18.50;99.90
56162;DHT22;42045;52.986;6.014;2023-08-12T03:59:03;18.50;99.90
56162;DHT22;42045;52.986;6.014;2023-08-12T04:01:29;18.50;99.90
56162;DHT22;42045;52.986;6.014;2023-08-12T04:03:54;18.50;99.90
56162;DHT22;42045;52.986;6.014;2023-08-12T04:06:20;18.50;99.90
56162;DHT22;42045;52.986;6.014;2023-08-12T04:08:45;18.50;99.90
56162;DHT22;42045;52.986;6.014;2023-08-12T04:11:11;18.50;99.90
56162;DHT22;42045;52.986;6.014;2023-08-12T04:13:37;18.60;99.90
56162;DHT22;42045;52.986;6.014;2023-08-12T04:16:03;18.60;99.90
56162;DHT22;42045;52.986;6.014;2023-08-12T04:18:28;18.60;99.90
56162;DHT22;42045;52.986;6.014;2023-08-12T04:20:54;18.60;99.90
56162;DHT22;42045;52.986;6.014;2023-08-12T04:23:20;18.60;99.90
56162;DHT22;42045;52.986;6.014;2023-08-12T04:25:46;18.60;99.90
56162;DHT22;42045;52.986;6.014;2023-08-12T04:28:13;18.60;99.90
56162;DHT22;42045;52.986;6.014;2023-08-12T04:30:46;18.60;99.90
56162;DHT22;42045;52.986;6.014;2023-08-12T04:33:13;18.50;99.90
56162;DHT22;42045;52.986;6.014;2023-08-12T04:35:39;18.60;99.90
56162;DHT22;42045;52.986;6.014;2023-08-12T04:38:05;18.60;99.90
56162;DHT22;42045;52.986;6.014;2023-08-12T04:40:32;18.60;99.90
56162;DHT22;42045;52.986;6.014;2023-08-12T04:43:00;18.60;99.90
56162;DHT22;42045;52.986;6.014;2023-08-12T04:45:27;18.70;99.90
56162;DHT22;42045;52.986;6.014;2023-08-12T04:47:53;18.60;99.90
56162;DHT22;42045;52.986;6.014;2023-08-12T04:50:19;18.60;99.90
56162;DHT22;42045;52.986;6.014;2023-08-12T04:52:45;18.70;99.90
56162;DHT22;42045;52.986;6.014;2023-08-12T04:55:12;18.70;99.90
56162;DHT22;42045;52.986;6.014;2023-08-12T04:57:37;18.70;99.90
56162;DHT22;42045;52.986;6.014;2023-08-12T05:00:04;18.80;99.90
56162;DHT22;42045;52.986;6.014;2023-08-12T05:02:30;18.80;99.90
56162;DHT22;42045;52.986;6.014;2023-08-12T05:04:56;18.80;99.90
56162;DHT22;42045;52.986;6.014;2023-08-12T05:07:22;19.00;99.90
56162;DHT22;42045;52.986;6.014;2023-08-12T05:09:47;19.00;99.90
56162;DHT22;42045;52.986;6.014;2023-08-12T05:12:13;19.10;99.90
56162;DHT22;42045;52.986;6.014;2023-08-12T05:14:40;19.10;99.90
56162;DHT22;42045;52.986;6.014;2023-08-12T05:17:06;19.20;99.90
56162;DHT22;42045;52.986;6.014;2023-08-12T05:19:32;19.20;99.90
56162;DHT22;42045;52.986;6.014;2023-08-12T05:21:58;19.30;99.90
56162;DHT22;42045;52.986;6.014;2023-08-12T05:24:23;19.30;99.90
56162;DHT22;42045;52.986;6.014;2023-08-12T05:26:49;19.40;99.90
56162;DHT22;42045;52.986;6.014;2023-08-12T05:29:15;19.40;99.90
56162;DHT22;42045;52.986;6.014;2023-08-12T05:31:41;19.50;99.90
56162;DHT22;42045;52.986;6.014;2023-08-12T05:34:06;19.50;99.90
56162;DHT22;42045;52.986;6.014;2023-08-12T05:36:32;19.50;99.90
56162;DHT22;42045;52.986;6.014;2023-08-12T05:38:58;19.50;99.90
56162;DHT22;42045;52.986;6.014;2023-08-12T05:41:24;19.50;99.90
56162;DHT22;42045;52.986;6.014;2023-08-12T05:43:50;19.60;99.90
56162;DHT22;42045;52.986;6.014;2023-08-12T05:46:15;19.60;99.90
56162;DHT22;42045;52.986;6.014;2023-08-12T05:48:41;19.60;99.90
56162;DHT22;42045;52.986;6.014;2023-08-12T05:51:07;19.60;99.90
56162;DHT22;42045;52.986;6.014;2023-08-12T05:53:32;19.70;99.90
56162;DHT22;42045;52.986;6.014;2023-08-12T05:55:58;19.70;99.90
56162;DHT22;42045;52.986;6.014;2023-08-12T05:58:24;19.70;99.90
56162;DHT22;42045;52.986;6.014;2023-08-12T06:00:50;19.60;99.90
56162;DHT22;42045;52.986;6.014;2023-08-12T06:03:16;19.60;99.90
56162;DHT22;42045;52.986;6.014;2023-08-12T06:05:45;19.60;99.90
56162;DHT22;42045;52.986;6.014;2023-08-12T06:08:11;19.60;99.90
56162;DHT22;42045;52.986;6.014;2023-08-12T06:10:36;19.50;99.90
56162;DHT22;42045;52.986;6.014;2023-08-12T06:13:02;19.50;99.90
56162;DHT22;42045;52.986;6.014;2023-08-12T06:15:28;19.60;99.90
56162;DHT22;42045;52.986;6.014;2023-08-12T06:17:53;19.60;99.90
56162;DHT22;42045;52.986;6.014;2023-08-12T06:20:19;19.50;99.90
56162;DHT22;42045;52.986;6.014;2023-08-12T06:22:45;19.60;99.90
56162;DHT22;42045;52.986;6.014;2023-08-12T06:25:10;19.60;99.90
56162;DHT22;42045;52.986;6.014;2023-08-12T06:27:36;19.60;99.90
56162;DHT22;42045;52.986;6.014;2023-08-12T06:30:02;19.60;99.90
56162;DHT22;42045;52.986;6.014;2023-08-12T06:32:28;19.70;99.90
56162;DHT22;42045;52.986;6.014;2023-08-12T06:34:53;19.70;99.90
56162;DHT22;42045;52.986;6.014;2023-08-12T06:37:19;19.70;99.90
56162;DHT22;42045;52.986;6.014;2023-08-12T06:39:45;19.70;99.90
56162;DHT22;42045;52.986;6.014;2023-08-12T06:42:10;19.70;99.90
56162;DHT22;42045;52.986;6.014;2023-08-12T06:44:36;19.90;99.90
56162;DHT22;42045;52.986;6.014;2023-08-12T06:47:01;19.80;99.90
56162;DHT22;42045;52.986;6.014;2023-08-12T06:49:27;19.80;99.90
56162;DHT22;42045;52.986;6.014;2023-08-12T06:51:53;19.80;99.90
56162;DHT22;42045;52.986;6.014;2023-08-12T06:54:18;19.80;99.90
56162;DHT22;42045;52.986;6.014;2023-08-12T06:56:44;19.90;99.90
56162;DHT22;42045;52.986;6.014;2023-08-12T06:59:10;19.80;99.90
56162;DHT22;42045;52.986;6.014;2023-08-12T07:01:36;19.90;99.90
56162;DHT22;42045;52.986;6.014;2023-08-12T07:04:02;19.90;99.90
56162;DHT22;42045;52.986;6.014;2023-08-12T07:06:27;19.90;99.90
56162;DHT22;42045;52.986;6.014;2023-08-12T07:08:53;19.90;99.90
56162;DHT22;42045;52.986;6.014;2023-08-12T07:11:19;20.00;99.90
56162;DHT22;42045;52.986;6.014;2023-08-12T07:13:44;20.00;99.90
56162;DHT22;42045;52.986;6.014;2023-08-12T07:16:12;20.00;99.90
56162;DHT22;42045;52.986;6.014;2023-08-12T07:18:37;20.10;99.90
56162;DHT22;42045;52.986;6.014;2023-08-12T07:21:03;20.10;99.90
56162;DHT22;42045;52.986;6.014;2023-08-12T07:23:29;20.10;99.90
56162;DHT22;42045;52.986;6.014;2023-08-12T07:25:55;20.10;99.90
56162;DHT22;42045;52.986;6.014;2023-08-12T07:28:21;20.10;99.90
56162;DHT22;42045;52.986;6.014;2023-08-12T07:30:48;20.20;99.90
56162;DHT22;42045;52.986;6.014;2023-08-12T07:33:14;20.20;99.90
56162;DHT22;42045;52.986;6.014;2023-08-12T07:35:40;20.20;99.90
56162;DHT22;42045;52.986;6.014;2023-08-12T07:38:06;20.30;99.90
56162;DHT22;42045;52.986;6.014;2023-08-12T07:40:32;20.40;99.90
56162;DHT22;42045;52.986;6.014;2023-08-12T07:42:58;20.50;99.90
56162;DHT22;42045;52.986;6.014;2023-08-12T07:45:24;20.50;99.90
56162;DHT22;42045;52.986;6.014;2023-08-12T07:47:50;20.40;99.90
56162;DHT22;42045;52.986;6.014;2023-08-12T07:50:16;20.40;99.90
56162;DHT22;42045;52.986;6.014;2023-08-12T07:52:41;20.50;99.90
56162;DHT22;42045;52.986;6.014;2023-08-12T07:55:07;20.30;99.90
56162;DHT22;42045;52.986;6.014;2023-08-12T07:57:33;20.30;99.90
56162;DHT22;42045;52.986;6.014;2023-08-12T07:59:58;20.30;99.90
56162;DHT22;42045;52.986;6.014;2023-08-12T08:02:24;20.10;99.90
56162;DHT22;42045;52.986;6.014;2023-08-12T08:04:50;20.20;99.90
56162;DHT22;42045;52.986;6.014;2023-08-12T08:07:16;20.10;99.90
56162;DHT22;42045;52.986;6.014;2023-08-12T08:09:42;20.10;99.90
56162;DHT22;42045;52.986;6.014;2023-08-12T08:12:09;20.00;99.90
56162;DHT22;42045;52.986;6.014;2023-08-12T08:14:36;20.00;99.90
56162;DHT22;42045;52.986;6.014;2023-08-12T08:17:02;19.90;99.90
56162;DHT22;42045;52.986;6.014;2023-08-12T08:19:27;20.00;99.90
56162;DHT22;42045;52.986;6.014;2023-08-12T08:21:53;19.90;99.90
56162;DHT22;42045;52.986;6.014;2023-08-12T08:24:19;19.90;99.90
56162;DHT22;42045;52.986;6.014;2023-08-12T08:26:44;19.90;99.90
56162;DHT22;42045;52.986;6.014;2023-08-12T08:29:13;19.90;99.90
56162;DHT22;42045;52.986;6.014;2023-08-12T08:31:39;19.90;99.90
56162;DHT22;42045;52.986;6.014;2023-08-12T08:34:05;19.90;99.90
56162;DHT22;42045;52.986;6.014;2023-08-12T08:36:31;19.90;99.90
56162;DHT22;42045;52.986;6.014;2023-08-12T08:38:57;20.10;99.90
56162;DHT22;42045;52.986;6.014;2023-08-12T08:41:24;20.00;99.90
56162;DHT22;42045;52.986;6.014;2023-08-12T08:43:52;20.10;99.90
56162;DHT22;42045;52.986;6.014;2023-08-12T08:46:20;20.10;99.90
56162;DHT22;42045;52.986;6.014;2023-08-12T08:48:47;20.20;99.90
56162;DHT22;42045;52.986;6.014;2023-08-12T08:51:14;20.30;99.90
56162;DHT22;42045;52.986;6.014;2023-08-12T08:53:40;20.30;99.90
56162;DHT22;42045;52.986;6.014;2023-08-12T08:56:07;20.20;99.90
56162;DHT22;42045;52.986;6.014;2023-08-12T08:58:33;20.30;99.90
56162;DHT22;42045;52.986;6.014;2023-08-12T09:00:59;20.30;99.90
56162;DHT22;42045;52.986;6.014;2023-08-12T09:03:26;20.30;99.90
56162;DHT22;42045;52.986;6.014;2023-08-12T09:05:54;20.30;99.90
56162;DHT22;42045;52.986;6.014;2023-08-12T09:08:22;20.20;99.90
56162;DHT22;42045;52.986;6.014;2023-08-12T09:10:48;20.20;99.90
56162;DHT22;42045;52.986;6.014;2023-08-12T09:13:14;20.20;99.90
56162;DHT22;42045;52.986;6.014;2023-08-12T09:15:41;20.20;99.90
56162;DHT22;42045;52.986;6.014;2023-08-12T09:18:07;20.10;99.90
56162;DHT22;42045;52.986;6.014;2023-08-12T09:20:33;20.00;99.90
56162;DHT22;42045;52.986;6.014;2023-08-12T09:22:59;20.00;99.90
56162;DHT22;42045;52.986;6.014;2023-08-12T09:25:29;19.90;99.90
56162;DHT22;42045;52.986;6.014;2023-08-12T09:27:58;19.90;99.90
56162;DHT22;42045;52.986;6.014;2023-08-12T09:30:24;19.90;99.90
56162;DHT22;42045;52.986;6.014;2023-08-12T09:33:07;19.80;99.90
56162;DHT22;42045;52.986;6.014;2023-08-12T09:35:37;19.80;99.90
56162;DHT22;42045;52.986;6.014;2023-08-12T09:38:10;19.80;99.90
56162;DHT22;42045;52.986;6.014;2023-08-12T09:40:36;20.00;99.90
56162;DHT22;42045;52.986;6.014;2023-08-12T09:43:02;20.00;99.90
56162;DHT22;42045;52.986;6.014;2023-08-12T09:45:30;20.00;99.90
56162;DHT22;42045;52.986;6.014;2023-08-12T09:47:57;20.10;99.90
56162;DHT22;42045;52.986;6.014;2023-08-12T09:50:24;20.10;99.90
56162;DHT22;42045;52.986;6.014;2023-08-12T09:52:51;20.10;99.90
56162;DHT22;42045;52.986;6.014;2023-08-12T09:55:18;20.20;99.90
56162;DHT22;42045;52.986;6.014;2023-08-12T09:57:48;20.30;99.90
56162;DHT22;42045;52.986;6.014;2023-08-12T10:00:15;20.50;99.90
56162;DHT22;42045;52.986;6.014;2023-08-12T10:02:46;20.50;99.90
56162;DHT22;42045;52.986;6.014;2023-08-12T10:05:18;20.50;99.90
56162;DHT22;42045;52.986;6.014;2023-08-12T10:07:45;20.40;99.90
56162;DHT22;42045;52.986;6.014;2023-08-12T10:10:12;20.30;99.90
56162;DHT22;42045;52.986;6.014;2023-08-12T10:12:38;20.20;99.90
56162;DHT22;42045;52.986;6.014;2023-08-12T10:15:05;20.20;99.90
56162;DHT22;42045;52.986;6.014;2023-08-12T10:17:33;20.10;99.90
56162;DHT22;42045;52.986;6.014;2023-08-12T10:20:01;20.10;99.90
56162;DHT22;42045;52.986;6.014;2023-08-12T10:22:30;20.20;99.90
56162;DHT22;42045;52.986;6.014;2023-08-12T10:24:59;20.20;99.90
56162;DHT22;42045;52.986;6.014;2023-08-12T10:27:26;20.10;99.90
56162;DHT22;42045;52.986;6.014;2023-08-12T10:29:52;20.10;99.90
56162;DHT22;42045;52.986;6.014;2023-08-12T10:32:18;19.60;99.90
56162;DHT22;42045;52.986;6.014;2023-08-12T10:34:44;19.30;99.90
56162;DHT22;42045;52.986;6.014;2023-08-12T10:37:10;19.10;99.90
56162;DHT22;42045;52.986;6.014;2023-08-12T10:39:37;18.90;99.90
56162;DHT22;42045;52.986;6.014;2023-08-12T10:42:04;18.80;99.90
56162;DHT22;42045;52.986;6.014;2023-08-12T10:44:49;18.60;99.90
56162;DHT22;42045;52.986;6.014;2023-08-12T10:47:19;18.60;99.90
56162;DHT22;42045;52.986;6.014;2023-08-12T10:49:49;18.60;99.90
56162;DHT22;42045;52.986;6.014;2023-08-12T10:52:28;18.70;99.90
56162;DHT22;42045;52.986;6.014;2023-08-12T10:54:54;18.80;99.90
56162;DHT22;42045;52.986;6.014;2023-08-12T10:57:35;18.90;99.90
56162;DHT22;42045;52.986;6.014;2023-08-12T11:00:05;19.00;99.90
56162;DHT22;42045;52.986;6.014;2023-08-12T11:02:33;19.20;99.90
56162;DHT22;42045;52.986;6.014;2023-08-12T11:05:04;19.30;99.90
56162;DHT22;42045;52.986;6.014;2023-08-12T11:07:43;19.30;99.90
56162;DHT22;42045;52.986;6.014;2023-08-12T11:10:21;19.30;99.90
56162;DHT22;42045;52.986;6.014;2023-08-12T11:12:57;19.30;99.90
56162;DHT22;42045;52.986;6.014;2023-08-12T11:17:56;19.30;99.90
56162;DHT22;42045;52.986;6.014;2023-08-12T11:20:22;19.30;99.90
56162;DHT22;42045;52.986;6.014;2023-08-12T11:22:49;19.30;99.90
56162;DHT22;42045;52.986;6.014;2023-08-12T11:25:15;19.30;99.90
56162;DHT22;42045;52.986;6.014;2023-08-12T11:27:45;19.40;99.90
56162;DHT22;42045;52.986;6.014;2023-08-12T11:30:19;19.30;99.90
56162;DHT22;42045;52.986;6.014;2023-08-12T11:32:55;19.40;99.90
56162;DHT22;42045;52.986;6.014;2023-08-12T11:35:22;19.30;99.90
56162;DHT22;42045;52.986;6.014;2023-08-12T11:37:54;19.30;99.90
56162;DHT22;42045;52.986;6.014;2023-08-12T11:40:21;19.20;99.90
56162;DHT22;42045;52.986;6.014;2023-08-12T11:42:48;19.30;99.90
56162;DHT22;42045;52.986;6.014;2023-08-12T11:45:18;19.30;99.90
56162;DHT22;42045;52.986;6.014;2023-08-12T11:47:44;19.30;99.90
56162;DHT22;42045;52.986;6.014;2023-08-12T11:50:12;19.60;99.90
56162;DHT22;42045;52.986;6.014;2023-08-12T11:52:39;19.70;99.90
56162;DHT22;42045;52.986;6.014;2023-08-12T11:55:05;19.90;99.90
56162;DHT22;42045;52.986;6.014;2023-08-12T11:57:32;20.00;99.90
56162;DHT22;42045;52.986;6.014;2023-08-12T12:00:04;20.10;99.90
56162;DHT22;42045;52.986;6.014;2023-08-12T12:02:31;20.20;99.90
56162;DHT22;42045;52.986;6.014;2023-08-12T12:04:57;20.50;99.90
56162;DHT22;42045;52.986;6.014;2023-08-12T12:07:24;20.70;99.90
56162;DHT22;42045;52.986;6.014;2023-08-12T12:09:54;21.00;99.90
56162;DHT22;42045;52.986;6.014;2023-08-12T12:12:24;21.20;99.90
56162;DHT22;42045;52.986;6.014;2023-08-12T12:14:53;21.30;99.90
56162;DHT22;42045;52.986;6.014;2023-08-12T12:17:22;21.40;99.90
56162;DHT22;42045;52.986;6.014;2023-08-12T12:19:59;21.50;99.90
56162;DHT22;42045;52.986;6.014;2023-08-12T12:22:29;21.50;99.90
56162;DHT22;42045;52.986;6.014;2023-08-12T12:24:58;21.60;99.90
56162;DHT22;42045;52.986;6.014;2023-08-12T12:27:25;21.70;99.90
56162;DHT22;42045;52.986;6.014;2023-08-12T12:29:51;21.70;99.90
56162;DHT22;42045;52.986;6.014;2023-08-12T12:32:20;21.70;99.90
56162;DHT22;42045;52.986;6.014;2023-08-12T12:34:46;21.80;99.90
56162;DHT22;42045;52.986;6.014;2023-08-12T12:37:13;21.80;99.90
56162;DHT22;42045;52.986;6.014;2023-08-12T12:39:39;21.80;99.90
56162;DHT22;42045;52.986;6.014;2023-08-12T12:42:05;21.90;99.90
56162;DHT22;42045;52.986;6.014;2023-08-12T12:44:31;21.90;99.90
56162;DHT22;42045;52.986;6.014;2023-08-12T12:46:57;21.80;99.90
56162;DHT22;42045;52.986;6.014;2023-08-12T12:49:22;21.90;99.90
56162;DHT22;42045;52.986;6.014;2023-08-12T12:51:50;22.00;99.90
56162;DHT22;42045;52.986;6.014;2023-08-12T12:54:15;22.00;99.90
56162;DHT22;42045;52.986;6.014;2023-08-12T12:56:41;22.10;99.90
56162;DHT22;42045;52.986;6.014;2023-08-12T12:59:07;22.20;99.90
56162;DHT22;42045;52.986;6.014;2023-08-12T13:01:33;22.20;99.90
56162;DHT22;42045;52.986;6.014;2023-08-12T13:03:58;22.20;99.90
56162;DHT22;42045;52.986;6.014;2023-08-12T13:06:24;22.30;99.90
56162;DHT22;42045;52.986;6.014;2023-08-12T13:08:50;22.30;99.90
56162;DHT22;42045;52.986;6.014;2023-08-12T13:11:16;22.30;99.90
56162;DHT22;42045;52.986;6.014;2023-08-12T13:13:41;22.30;99.90
56162;DHT22;42045;52.986;6.014;2023-08-12T13:16:07;22.30;99.90
56162;DHT22;42045;52.986;6.014;2023-08-12T13:18:35;22.30;99.90
56162;DHT22;42045;52.986;6.014;2023-08-12T13:21:01;22.30;99.90
56162;DHT22;42045;52.986;6.014;2023-08-12T13:23:27;22.30;99.90
56162;DHT22;42045;52.986;6.014;2023-08-12T13:25:53;22.30;99.90
56162;DHT22;42045;52.986;6.014;2023-08-12T13:28:18;22.30;99.90
56162;DHT22;42045;52.986;6.014;2023-08-12T13:30:45;22.30;99.90
56162;DHT22;42045;52.986;6.014;2023-08-12T13:33:11;22.30;99.90
56162;DHT22;42045;52.986;6.014;2023-08-12T13:35:37;22.30;99.90
56162;DHT22;42045;52.986;6.014;2023-08-12T13:38:03;22.40;99.90
56162;DHT22;42045;52.986;6.014;2023-08-12T13:40:29;22.30;99.90
56162;DHT22;42045;52.986;6.014;2023-08-12T13:42:54;22.10;99.90
56162;DHT22;42045;52.986;6.014;2023-08-12T13:45:20;22.10;99.90
56162;DHT22;42045;52.986;6.014;2023-08-12T13:47:46;21.90;99.90
56162;DHT22;42045;52.986;6.014;2023-08-12T13:50:12;21.80;99.90
56162;DHT22;42045;52.986;6.014;2023-08-12T13:52:39;21.70;99.90
56162;DHT22;42045;52.986;6.014;2023-08-12T13:55:05;21.70;99.90
56162;DHT22;42045;52.986;6.014;2023-08-12T13:57:31;21.70;99.90
56162;DHT22;42045;52.986;6.014;2023-08-12T13:59:57;21.70;99.90
56162;DHT22;42045;52.986;6.014;2023-08-12T14:02:23;21.90;99.90
56162;DHT22;42045;52.986;6.014;2023-08-12T14:04:49;22.10;99.90
56162;DHT22;42045;52.986;6.014;2023-08-12T14:07:15;22.30;99.90
56162;DHT22;42045;52.986;6.014;2023-08-12T14:09:41;22.50;99.90
56162;DHT22;42045;52.986;6.014;2023-08-12T14:12:07;22.70;99.90
56162;DHT22;42045;52.986;6.014;2023-08-12T14:14:33;22.60;99.90
56162;DHT22;42045;52.986;6.014;2023-08-12T14:16:58;22.60;99.90
56162;DHT22;42045;52.986;6.014;2023-08-12T14:19:24;22.60;99.90
56162;DHT22;42045;52.986;6.014;2023-08-12T14:21:50;22.70;99.90
56162;DHT22;42045;52.986;6.014;2023-08-12T14:24:16;22.70;99.90
56162;DHT22;42045;52.986;6.014;2023-08-12T14:26:41;22.70;99.90
56162;DHT22;42045;52.986;6.014;2023-08-12T14:29:07;22.80;99.90
56162;DHT22;42045;52.986;6.014;2023-08-12T14:31:33;22.80;99.90
56162;DHT22;42045;52.986;6.014;2023-08-12T14:33:59;22.80;99.90
56162;DHT22;42045;52.986;6.014;2023-08-12T14:36:26;22.90;99.90
56162;DHT22;42045;52.986;6.014;2023-08-12T14:38:52;23.00;99.90
56162;DHT22;42045;52.986;6.014;2023-08-12T14:41:18;22.90;99.90
56162;DHT22;42045;52.986;6.014;2023-08-12T14:43:43;22.80;99.90
56162;DHT22;42045;52.986;6.014;2023-08-12T14:46:09;22.70;99.90
56162;DHT22;42045;52.986;6.014;2023-08-12T14:48:35;22.60;99.90
56162;DHT22;42045;52.986;6.014;2023-08-12T14:51:00;22.40;99.90
56162;DHT22;42045;52.986;6.014;2023-08-12T14:53:27;22.50;99.90
56162;DHT22;42045;52.986;6.014;2023-08-12T14:55:53;22.50;99.90
56162;DHT22;42045;52.986;6.014;2023-08-12T14:58:18;22.60;99.90
56162;DHT22;42045;52.986;6.014;2023-08-12T15:00:46;22.80;99.90
56162;DHT22;42045;52.986;6.014;2023-08-12T15:03:11;22.80;99.90
56162;DHT22;42045;52.986;6.014;2023-08-12T15:05:38;22.90;99.90
56162;DHT22;42045;52.986;6.014;2023-08-12T15:08:04;22.90;99.90
56162;DHT22;42045;52.986;6.014;2023-08-12T15:10:30;22.80;99.90
56162;DHT22;42045;52.986;6.014;2023-08-12T15:12:56;22.60;99.90
56162;DHT22;42045;52.986;6.014;2023-08-12T15:15:21;22.40;99.90
56162;DHT22;42045;52.986;6.014;2023-08-12T15:17:47;22.50;99.90
56162;DHT22;42045;52.986;6.014;2023-08-12T15:20:13;22.30;99.90
56162;DHT22;42045;52.986;6.014;2023-08-12T15:22:38;22.10;99.90
56162;DHT22;42045;52.986;6.014;2023-08-12T15:25:05;22.10;99.90
56162;DHT22;42045;52.986;6.014;2023-08-12T15:27:31;22.00;99.90
56162;DHT22;42045;52.986;6.014;2023-08-12T15:29:56;21.90;99.90
56162;DHT22;42045;52.986;6.014;2023-08-12T15:32:22;21.90;99.90